首页
METAR-TAF:

METAR-TAF

机场 :

成田国际机场

东京 / 成田国际机场, 日本

纬度: 35-46N, 经度: 140-23E, 海拔: 41米

当前天气观测

该预报发布于24分钟前的20:30 UTC
风速3节,风向
温度 6°C
湿度 93%
气压 1013 hPa
能见度10公里或以上
少量云层高于4000英尺
浅雾

METAR: RJAA 072030Z 01003KT 9999 MIFG FEW040 06/05 Q1013 NOSIG

时间: 05:54 (20:54 UTC)

预报

该预报发布于53分钟前的20:01 UTC
预报有效从07日的 20点(UTC)到 09日的 00点(UTC)
风速4节,风向
能见度10公里或以上
少量云层高于3000英尺
成为
从 08日的 01点(UTC)到 08日的 03点(UTC)
风速10节,风向南转西南
成为
从 08日的 15点(UTC)到 08日的 18点(UTC)
风速12节,风向北转东北

TAF: RJAA 072001Z 0720/0900 36004KT 9999 FEW030 BECMG 0801/0803 20010KT BECMG 0815/0818 02012KT

超过4000个机场的气象观测和天气预报(METAR&TAF报告)。

可查询的气象台以黄色和红色小点在地图上表示。

将鼠标移到小点上方,可查看气象台名称。

然后点击查看天气观测和预报。

如需切换地图:点击带黑十字的绿色按钮放大地图;点击带横线的绿色按钮缩小地图;或者点击绿色箭头查看邻近地区的地图。


METAR-TAF: